sensor_id;sensor_type;location;lat;lon;timestamp;temperature;humidity
68842;SHT35;55849;48.482;2.332;2024-02-23T06:37:20;7.79;79.86
68842;SHT35;55849;48.482;2.332;2024-02-23T06:40:21;7.78;79.78
68842;SHT35;55849;48.482;2.332;2024-02-23T06:43:23;7.77;79.72
68842;SHT35;55849;48.482;2.332;2024-02-23T06:46:25;7.78;79.79
68842;SHT35;55849;48.482;2.332;2024-02-23T06:49:26;7.78;80.07
68842;SHT35;55849;48.482;2.332;2024-02-23T06:52:29;7.77;79.70
68842;SHT35;55849;48.482;2.332;2024-02-23T06:55:33;7.78;80.22
68842;SHT35;55849;48.482;2.332;2024-02-23T06:58:35;7.81;79.66
68842;SHT35;55849;48.482;2.332;2024-02-23T07:01:47;7.81;79.85
68842;SHT35;55849;48.482;2.332;2024-02-23T07:04:49;7.78;79.84
68842;SHT35;55849;48.482;2.332;2024-02-23T07:07:52;7.79;79.60
68842;SHT35;55849;48.482;2.332;2024-02-23T07:10:53;7.77;80.15
68842;SHT35;55849;48.482;2.332;2024-02-23T07:13:55;7.78;79.83
68842;SHT35;55849;48.482;2.332;2024-02-23T07:16:56;7.77;79.41
68842;SHT35;55849;48.482;2.332;2024-02-23T07:19:58;7.77;80.31
68842;SHT35;55849;48.482;2.332;2024-02-23T07:23:07;7.79;79.80
68842;SHT35;55849;48.482;2.332;2024-02-23T07:26:09;7.79;80.20
68842;SHT35;55849;48.482;2.332;2024-02-23T07:29:11;7.77;79.78
68842;SHT35;55849;48.482;2.332;2024-02-23T07:32:12;7.81;80.24
68842;SHT35;55849;48.482;2.332;2024-02-23T07:35:14;7.81;79.80
68842;SHT35;55849;48.482;2.332;2024-02-23T07:38:17;7.82;79.96
68842;SHT35;55849;48.482;2.332;2024-02-23T07:41:19;7.81;79.93
68842;SHT35;55849;48.482;2.332;2024-02-23T07:44:21;7.86;79.63
68842;SHT35;55849;48.482;2.332;2024-02-23T07:47:23;7.81;79.71
68842;SHT35;55849;48.482;2.332;2024-02-23T07:50:27;7.85;80.02
68842;SHT35;55849;48.482;2.332;2024-02-23T07:53:30;7.85;79.88
68842;SHT35;55849;48.482;2.332;2024-02-23T07:56:31;7.85;79.98
68842;SHT35;55849;48.482;2.332;2024-02-23T07:59:33;7.85;79.89
68842;SHT35;55849;48.482;2.332;2024-02-23T08:02:35;7.87;80.15
68842;SHT35;55849;48.482;2.332;2024-02-23T08:05:37;7.90;80.19
68842;SHT35;55849;48.482;2.332;2024-02-23T08:08:40;7.93;80.10
68842;SHT35;55849;48.482;2.332;2024-02-23T08:11:41;7.96;80.33
68842;SHT35;55849;48.482;2.332;2024-02-23T08:14:43;8.02;79.98
68842;SHT35;55849;48.482;2.332;2024-02-23T08:17:45;8.07;80.15
68842;SHT35;55849;48.482;2.332;2024-02-23T08:20:47;8.12;80.22
68842;SHT35;55849;48.482;2.332;2024-02-23T08:23:50;8.16;79.95
68842;SHT35;55849;48.482;2.332;2024-02-23T08:26:52;8.19;80.06
68842;SHT35;55849;48.482;2.332;2024-02-23T08:29:54;8.20;79.97
68842;SHT35;55849;48.482;2.332;2024-02-23T08:32:55;8.26;79.60
68842;SHT35;55849;48.482;2.332;2024-02-23T08:35:57;8.29;79.53
68842;SHT35;55849;48.482;2.332;2024-02-23T08:39:00;8.31;79.43
68842;SHT35;55849;48.482;2.332;2024-02-23T08:42:01;8.37;79.80
68842;SHT35;55849;48.482;2.332;2024-02-23T08:45:04;8.40;79.05
68842;SHT35;55849;48.482;2.332;2024-02-23T08:48:06;8.44;79.47
68842;SHT35;55849;48.482;2.332;2024-02-23T08:51:09;8.48;78.86
68842;SHT35;55849;48.482;2.332;2024-02-23T08:54:12;8.52;79.10
68842;SHT35;55849;48.482;2.332;2024-02-23T08:57:13;8.55;78.97
68842;SHT35;55849;48.482;2.332;2024-02-23T09:00:18;8.58;79.12
68842;SHT35;55849;48.482;2.332;2024-02-23T09:03:19;8.64;79.28
68842;SHT35;55849;48.482;2.332;2024-02-23T09:06:21;8.66;79.26
68842;SHT35;55849;48.482;2.332;2024-02-23T09:09:24;8.75;79.38
68842;SHT35;55849;48.482;2.332;2024-02-23T09:12:26;8.77;79.34
68842;SHT35;55849;48.482;2.332;2024-02-23T09:15:28;8.82;79.23
68842;SHT35;55849;48.482;2.332;2024-02-23T09:18:29;8.89;78.95
68842;SHT35;55849;48.482;2.332;2024-02-23T09:21:31;8.94;78.56
68842;SHT35;55849;48.482;2.332;2024-02-23T09:24:34;8.91;78.47
68842;SHT35;55849;48.482;2.332;2024-02-23T09:27:36;8.96;78.84
68842;SHT35;55849;48.482;2.332;2024-02-23T09:30:43;8.97;78.40
68842;SHT35;55849;48.482;2.332;2024-02-23T09:33:44;9.00;78.39
68842;SHT35;55849;48.482;2.332;2024-02-23T09:36:47;9.00;78.35
68842;SHT35;55849;48.482;2.332;2024-02-23T09:39:50;9.03;78.47
68842;SHT35;55849;48.482;2.332;2024-02-23T09:42:55;9.10;78.51
68842;SHT35;55849;48.482;2.332;2024-02-23T09:45:58;9.11;78.57
68842;SHT35;55849;48.482;2.332;2024-02-23T09:49:01;9.15;78.48
68842;SHT35;55849;48.482;2.332;2024-02-23T09:52:05;9.25;78.73
68842;SHT35;55849;48.482;2.332;2024-02-23T09:55:09;9.28;77.92
68842;SHT35;55849;48.482;2.332;2024-02-23T09:58:12;9.30;78.38
68842;SHT35;55849;48.482;2.332;2024-02-23T10:01:21;9.38;78.61
68842;SHT35;55849;48.482;2.332;2024-02-23T10:04:27;9.41;78.55
68842;SHT35;55849;48.482;2.332;2024-02-23T10:07:29;9.48;78.51
68842;SHT35;55849;48.482;2.332;2024-02-23T10:10:33;9.53;78.27
68842;SHT35;55849;48.482;2.332;2024-02-23T10:13:35;9.60;77.65
68842;SHT35;55849;48.482;2.332;2024-02-23T10:16:37;9.63;77.59
68842;SHT35;55849;48.482;2.332;2024-02-23T10:19:39;9.65;77.61
68842;SHT35;55849;48.482;2.332;2024-02-23T10:22:40;9.67;77.59
68842;SHT35;55849;48.482;2.332;2024-02-23T10:25:43;9.69;77.54
68842;SHT35;55849;48.482;2.332;2024-02-23T10:28:45;9.73;77.56
68842;SHT35;55849;48.482;2.332;2024-02-23T10:31:47;9.75;77.79
68842;SHT35;55849;48.482;2.332;2024-02-23T10:34:52;9.75;77.76
68842;SHT35;55849;48.482;2.332;2024-02-23T10:37:54;9.76;78.03
68842;SHT35;55849;48.482;2.332;2024-02-23T10:40:58;9.79;77.36
68842;SHT35;55849;48.482;2.332;2024-02-23T10:44:00;9.79;77.94
68842;SHT35;55849;48.482;2.332;2024-02-23T10:47:04;9.83;77.79
68842;SHT35;55849;48.482;2.332;2024-02-23T10:50:07;9.89;78.25
68842;SHT35;55849;48.482;2.332;2024-02-23T10:53:09;9.90;77.38
68842;SHT35;55849;48.482;2.332;2024-02-23T10:56:13;9.94;77.78
68842;SHT35;55849;48.482;2.332;2024-02-23T10:59:14;9.97;76.90
68842;SHT35;55849;48.482;2.332;2024-02-23T11:02:19;10.01;76.89
68842;SHT35;55849;48.482;2.332;2024-02-23T11:05:23;10.03;77.09
68842;SHT35;55849;48.482;2.332;2024-02-23T11:08:28;10.04;76.30
68842;SHT35;55849;48.482;2.332;2024-02-23T11:11:32;10.05;76.82
68842;SHT35;55849;48.482;2.332;2024-02-23T11:14:36;10.08;76.48
68842;SHT35;55849;48.482;2.332;2024-02-23T11:17:37;10.07;76.10
68842;SHT35;55849;48.482;2.332;2024-02-23T11:20:39;10.11;76.92
68842;SHT35;55849;48.482;2.332;2024-02-23T11:23:41;10.14;76.69
68842;SHT35;55849;48.482;2.332;2024-02-23T11:26:48;10.17;76.75
68842;SHT35;55849;48.482;2.332;2024-02-23T11:29:59;10.24;77.30
68842;SHT35;55849;48.482;2.332;2024-02-23T11:33:00;10.31;77.02
68842;SHT35;55849;48.482;2.332;2024-02-23T11:36:06;10.31;76.58
68842;SHT35;55849;48.482;2.332;2024-02-23T11:39:09;10.31;75.47
68842;SHT35;55849;48.482;2.332;2024-02-23T11:42:13;10.32;75.56
68842;SHT35;55849;48.482;2.332;2024-02-23T11:45:14;10.31;75.46
68842;SHT35;55849;48.482;2.332;2024-02-23T11:48:16;10.32;75.85
68842;SHT35;55849;48.482;2.332;2024-02-23T11:51:18;10.34;75.80
68842;SHT35;55849;48.482;2.332;2024-02-23T11:54:20;10.35;75.86
68842;SHT35;55849;48.482;2.332;2024-02-23T11:57:24;10.41;75.48
68842;SHT35;55849;48.482;2.332;2024-02-23T12:00:27;10.45;75.75
68842;SHT35;55849;48.482;2.332;2024-02-23T12:03:30;10.48;75.48
68842;SHT35;55849;48.482;2.332;2024-02-23T12:06:32;10.52;74.96
68842;SHT35;55849;48.482;2.332;2024-02-23T12:09:34;10.53;75.00
68842;SHT35;55849;48.482;2.332;2024-02-23T12:12:37;10.59;74.02
68842;SHT35;55849;48.482;2.332;2024-02-23T12:15:39;10.64;74.06
68842;SHT35;55849;48.482;2.332;2024-02-23T12:18:40;10.70;74.03
68842;SHT35;55849;48.482;2.332;2024-02-23T12:21:45;10.71;73.86
68842;SHT35;55849;48.482;2.332;2024-02-23T12:24:46;10.73;73.91
68842;SHT35;55849;48.482;2.332;2024-02-23T12:27:55;10.74;73.15
68842;SHT35;55849;48.482;2.332;2024-02-23T12:31:00;10.74;72.82
68842;SHT35;55849;48.482;2.332;2024-02-23T12:34:02;10.74;73.15
68842;SHT35;55849;48.482;2.332;2024-02-23T12:37:04;10.77;73.86
68842;SHT35;55849;48.482;2.332;2024-02-23T12:40:07;10.79;73.87
68842;SHT35;55849;48.482;2.332;2024-02-23T12:43:10;10.81;73.75
68842;SHT35;55849;48.482;2.332;2024-02-23T12:46:12;10.87;74.06
68842;SHT35;55849;48.482;2.332;2024-02-23T12:49:14;11.00;72.54
68842;SHT35;55849;48.482;2.332;2024-02-23T12:52:16;11.03;72.52
68842;SHT35;55849;48.482;2.332;2024-02-23T12:55:18;11.03;71.95
68842;SHT35;55849;48.482;2.332;2024-02-23T12:58:21;11.03;72.71
68842;SHT35;55849;48.482;2.332;2024-02-23T13:01:23;11.03;73.90
68842;SHT35;55849;48.482;2.332;2024-02-23T13:04:25;11.07;74.91
68842;SHT35;55849;48.482;2.332;2024-02-23T13:07:26;11.12;74.90
68842;SHT35;55849;48.482;2.332;2024-02-23T13:10:28;11.16;74.51
68842;SHT35;55849;48.482;2.332;2024-02-23T13:13:31;11.10;74.31
68842;SHT35;55849;48.482;2.332;2024-02-23T13:16:33;11.01;74.61
68842;SHT35;55849;48.482;2.332;2024-02-23T13:19:34;10.94;74.70
68842;SHT35;55849;48.482;2.332;2024-02-23T13:22:36;10.88;75.86
68842;SHT35;55849;48.482;2.332;2024-02-23T13:25:39;10.80;75.98
68842;SHT35;55849;48.482;2.332;2024-02-23T13:28:42;10.74;76.57
68842;SHT35;55849;48.482;2.332;2024-02-23T13:31:44;10.71;76.45
68842;SHT35;55849;48.482;2.332;2024-02-23T13:34:46;10.76;77.72
68842;SHT35;55849;48.482;2.332;2024-02-23T13:37:48;10.91;77.81
68842;SHT35;55849;48.482;2.332;2024-02-23T13:40:49;11.07;77.09
68842;SHT35;55849;48.482;2.332;2024-02-23T13:43:53;11.18;76.86
68842;SHT35;55849;48.482;2.332;2024-02-23T13:46:55;11.23;76.89
68842;SHT35;55849;48.482;2.332;2024-02-23T13:49:57;11.35;76.96
68842;SHT35;55849;48.482;2.332;2024-02-23T13:52:58;11.50;77.30
68842;SHT35;55849;48.482;2.332;2024-02-23T13:56:00;11.67;75.25
68842;SHT35;55849;48.482;2.332;2024-02-23T13:59:03;11.80;74.98
68842;SHT35;55849;48.482;2.332;2024-02-23T14:02:05;11.75;73.80
68842;SHT35;55849;48.482;2.332;2024-02-23T14:05:07;11.74;75.00
68842;SHT35;55849;48.482;2.332;2024-02-23T14:08:09;11.75;76.52
68842;SHT35;55849;48.482;2.332;2024-02-23T14:11:11;11.95;76.11
68842;SHT35;55849;48.482;2.332;2024-02-23T14:14:14;12.21;75.10
68842;SHT35;55849;48.482;2.332;2024-02-23T14:17:15;12.50;75.27
68842;SHT35;55849;48.482;2.332;2024-02-23T14:20:17;12.65;73.09
68842;SHT35;55849;48.482;2.332;2024-02-23T14:23:18;12.73;73.51
68842;SHT35;55849;48.482;2.332;2024-02-23T14:26:21;12.81;74.89
68842;SHT35;55849;48.482;2.332;2024-02-23T14:29:24;12.88;73.48
68842;SHT35;55849;48.482;2.332;2024-02-23T14:32:26;12.92;72.46
68842;SHT35;55849;48.482;2.332;2024-02-23T14:35:27;12.95;73.24
68842;SHT35;55849;48.482;2.332;2024-02-23T14:38:29;12.99;72.90
68842;SHT35;55849;48.482;2.332;2024-02-23T14:41:31;12.98;71.84
68842;SHT35;55849;48.482;2.332;2024-02-23T14:44:34;12.89;72.42
68842;SHT35;55849;48.482;2.332;2024-02-23T14:47:36;12.84;71.49
68842;SHT35;55849;48.482;2.332;2024-02-23T14:50:38;12.77;72.25
68842;SHT35;55849;48.482;2.332;2024-02-23T14:53:39;12.67;72.15
68842;SHT35;55849;48.482;2.332;2024-02-23T14:56:41;12.60;71.57
68842;SHT35;55849;48.482;2.332;2024-02-23T14:59:44;12.67;73.00
68842;SHT35;55849;48.482;2.332;2024-02-23T15:02:47;12.78;71.94
68842;SHT35;55849;48.482;2.332;2024-02-23T15:05:51;12.89;71.81
68842;SHT35;55849;48.482;2.332;2024-02-23T15:08:53;12.85;71.29
68842;SHT35;55849;48.482;2.332;2024-02-23T15:11:54;12.85;72.06
68842;SHT35;55849;48.482;2.332;2024-02-23T15:14:57;12.81;71.16
68842;SHT35;55849;48.482;2.332;2024-02-23T15:17:59;12.75;71.21
68842;SHT35;55849;48.482;2.332;2024-02-23T15:21:01;12.68;72.15
68842;SHT35;55849;48.482;2.332;2024-02-23T15:24:02;12.68;72.69
68842;SHT35;55849;48.482;2.332;2024-02-23T15:27:04;12.69;72.42
68842;SHT35;55849;48.482;2.332;2024-02-23T15:30:08;12.65;71.71
68842;SHT35;55849;48.482;2.332;2024-02-23T15:33:10;12.57;71.54
68842;SHT35;55849;48.482;2.332;2024-02-23T15:36:12;12.47;72.31
68842;SHT35;55849;48.482;2.332;2024-02-23T15:39:16;12.37;72.37
68842;SHT35;55849;48.482;2.332;2024-02-23T15:42:17;12.28;72.31
68842;SHT35;55849;48.482;2.332;2024-02-23T15:45:22;12.21;71.84
68842;SHT35;55849;48.482;2.332;2024-02-23T15:48:23;12.12;71.56
68842;SHT35;55849;48.482;2.332;2024-02-23T15:51:25;12.05;72.20
68842;SHT35;55849;48.482;2.332;2024-02-23T15:54:27;11.99;73.28
68842;SHT35;55849;48.482;2.332;2024-02-23T15:57:30;11.94;71.72
68842;SHT35;55849;48.482;2.332;2024-02-23T16:00:33;11.88;71.79
68842;SHT35;55849;48.482;2.332;2024-02-23T16:03:34;11.81;72.50
68842;SHT35;55849;48.482;2.332;2024-02-23T16:06:36;11.74;71.83
68842;SHT35;55849;48.482;2.332;2024-02-23T16:09:38;11.64;73.45
68842;SHT35;55849;48.482;2.332;2024-02-23T16:12:39;11.59;73.60
68842;SHT35;55849;48.482;2.332;2024-02-23T16:15:42;11.53;73.35
68842;SHT35;55849;48.482;2.332;2024-02-23T16:18:44;11.46;73.76
68842;SHT35;55849;48.482;2.332;2024-02-23T16:21:46;11.42;74.30
68842;SHT35;55849;48.482;2.332;2024-02-23T16:24:49;11.38;74.33
68842;SHT35;55849;48.482;2.332;2024-02-23T16:27:50;11.31;73.54
68842;SHT35;55849;48.482;2.332;2024-02-23T16:30:54;11.29;74.22
68842;SHT35;55849;48.482;2.332;2024-02-23T16:33:56;11.25;73.53
68842;SHT35;55849;48.482;2.332;2024-02-23T16:36:57;11.19;74.40
68842;SHT35;55849;48.482;2.332;2024-02-23T16:39:59;11.15;74.69
68842;SHT35;55849;48.482;2.332;2024-02-23T16:43:00;11.10;74.53
68842;SHT35;55849;48.482;2.332;2024-02-23T16:46:03;11.04;74.33
68842;SHT35;55849;48.482;2.332;2024-02-23T16:49:05;11.00;74.55
68842;SHT35;55849;48.482;2.332;2024-02-23T16:52:07;10.98;75.01
68842;SHT35;55849;48.482;2.332;2024-02-23T16:55:08;10.93;74.75
68842;SHT35;55849;48.482;2.332;2024-02-23T16:58:10;10.90;74.91
68842;SHT35;55849;48.482;2.332;2024-02-23T17:01:13;10.88;74.96
68842;SHT35;55849;48.482;2.332;2024-02-23T17:04:15;10.83;74.43
68842;SHT35;55849;48.482;2.332;2024-02-23T17:07:16;10.80;75.45
68842;SHT35;55849;48.482;2.332;2024-02-23T17:10:18;10.79;75.35
68842;SHT35;55849;48.482;2.332;2024-02-23T17:13:20;10.79;74.69
68842;SHT35;55849;48.482;2.332;2024-02-23T17:16:23;10.76;74.49
68842;SHT35;55849;48.482;2.332;2024-02-23T17:19:27;10.70;74.76
68842;SHT35;55849;48.482;2.332;2024-02-23T17:22:29;10.66;74.01
68842;SHT35;55849;48.482;2.332;2024-02-23T17:25:31;10.59;75.30
68842;SHT35;55849;48.482;2.332;2024-02-23T17:28:32;10.55;75.93
68842;SHT35;55849;48.482;2.332;2024-02-23T17:31:37;10.52;76.74
68842;SHT35;55849;48.482;2.332;2024-02-23T17:34:38;10.55;77.52
68842;SHT35;55849;48.482;2.332;2024-02-23T17:37:40;10.55;77.84
68842;SHT35;55849;48.482;2.332;2024-02-23T17:40:41;10.52;76.68
68842;SHT35;55849;48.482;2.332;2024-02-23T17:43:46;10.49;76.98
68842;SHT35;55849;48.482;2.332;2024-02-23T17:46:48;10.45;77.43
68842;SHT35;55849;48.482;2.332;2024-02-23T17:49:50;10.45;77.67
68842;SHT35;55849;48.482;2.332;2024-02-23T17:52:52;10.44;78.00
68842;SHT35;55849;48.482;2.332;2024-02-23T17:55:53;10.41;77.09
68842;SHT35;55849;48.482;2.332;2024-02-23T17:58:57;10.39;77.09
68842;SHT35;55849;48.482;2.332;2024-02-23T18:02:00;10.36;77.34
68842;SHT35;55849;48.482;2.332;2024-02-23T18:05:02;10.35;76.57
68842;SHT35;55849;48.482;2.332;2024-02-23T18:08:05;10.27;76.69
68842;SHT35;55849;48.482;2.332;2024-02-23T18:11:06;10.28;77.30
68842;SHT35;55849;48.482;2.332;2024-02-23T18:14:08;10.21;76.44
68842;SHT35;55849;48.482;2.332;2024-02-23T18:17:11;10.14;76.81
68842;SHT35;55849;48.482;2.332;2024-02-23T18:20:13;10.10;76.65
68842;SHT35;55849;48.482;2.332;2024-02-23T18:23:15;10.04;76.36
68842;SHT35;55849;48.482;2.332;2024-02-23T18:26:16;9.95;77.24
68842;SHT35;55849;48.482;2.332;2024-02-23T18:29:18;9.94;77.52
68842;SHT35;55849;48.482;2.332;2024-02-23T18:32:21;9.93;77.37
68842;SHT35;55849;48.482;2.332;2024-02-23T18:35:22;9.89;78.01
68842;SHT35;55849;48.482;2.332;2024-02-23T18:38:24;9.86;77.74
68842;SHT35;55849;48.482;2.332;2024-02-23T18:41:26;9.87;78.10
68842;SHT35;55849;48.482;2.332;2024-02-23T18:44:28;9.86;77.63
68842;SHT35;55849;48.482;2.332;2024-02-23T18:47:31;9.83;77.60
68842;SHT35;55849;48.482;2.332;2024-02-23T18:50:32;9.82;78.00
68842;SHT35;55849;48.482;2.332;2024-02-23T18:53:34;9.80;78.34
68842;SHT35;55849;48.482;2.332;2024-02-23T18:56:35;9.84;78.58
68842;SHT35;55849;48.482;2.332;2024-02-23T18:59:37;9.83;78.07
68842;SHT35;55849;48.482;2.332;2024-02-23T19:02:40;9.80;77.85
68842;SHT35;55849;48.482;2.332;2024-02-23T19:05:42;9.77;78.05
68842;SHT35;55849;48.482;2.332;2024-02-23T19:08:43;9.77;78.04
68842;SHT35;55849;48.482;2.332;2024-02-23T19:11:45;9.79;77.88
68842;SHT35;55849;48.482;2.332;2024-02-23T19:14:47;9.79;77.32
68842;SHT35;55849;48.482;2.332;2024-02-23T19:17:49;9.75;77.84
68842;SHT35;55849;48.482;2.332;2024-02-23T19:20:51;9.70;77.52
68842;SHT35;55849;48.482;2.332;2024-02-23T19:23:53;9.75;77.94
68842;SHT35;55849;48.482;2.332;2024-02-23T19:26:54;9.75;77.69
68842;SHT35;55849;48.482;2.332;2024-02-23T19:29:56;9.72;78.04
68842;SHT35;55849;48.482;2.332;2024-02-23T19:33:03;9.72;78.15
68842;SHT35;55849;48.482;2.332;2024-02-23T19:36:06;9.69;77.89
68842;SHT35;55849;48.482;2.332;2024-02-23T19:39:09;9.67;78.04
68842;SHT35;55849;48.482;2.332;2024-02-23T19:42:11;9.65;78.08
68842;SHT35;55849;48.482;2.332;2024-02-23T19:45:14;9.65;77.91
68842;SHT35;55849;48.482;2.332;2024-02-23T19:48:17;9.62;77.90
68842;SHT35;55849;48.482;2.332;2024-02-23T19:51:18;9.60;77.11
68842;SHT35;55849;48.482;2.332;2024-02-23T19:54:20;9.56;78.03
68842;SHT35;55849;48.482;2.332;2024-02-23T19:57:21;9.51;77.89
68842;SHT35;55849;48.482;2.332;2024-02-23T20:00:23;9.49;77.42
68842;SHT35;55849;48.482;2.332;2024-02-23T20:03:26;9.46;77.80
68842;SHT35;55849;48.482;2.332;2024-02-23T20:06:28;9.46;77.93
68842;SHT35;55849;48.482;2.332;2024-02-23T20:09:29;9.43;77.41
68842;SHT35;55849;48.482;2.332;2024-02-23T20:12:31;9.36;77.49
68842;SHT35;55849;48.482;2.332;2024-02-23T20:15:32;9.34;77.33
68842;SHT35;55849;48.482;2.332;2024-02-23T20:18:35;9.35;77.42
68842;SHT35;55849;48.482;2.332;2024-02-23T20:21:38;9.34;77.61
68842;SHT35;55849;48.482;2.332;2024-02-23T20:24:40;9.32;77.30
68842;SHT35;55849;48.482;2.332;2024-02-23T20:27:41;9.31;77.70
68842;SHT35;55849;48.482;2.332;2024-02-23T20:30:43;9.27;77.09
68842;SHT35;55849;48.482;2.332;2024-02-23T20:33:46;9.27;76.97
68842;SHT35;55849;48.482;2.332;2024-02-23T20:36:48;9.24;77.78
68842;SHT35;55849;48.482;2.332;2024-02-23T20:39:49;9.24;77.55
68842;SHT35;55849;48.482;2.332;2024-02-23T20:42:51;9.21;77.53
68842;SHT35;55849;48.482;2.332;2024-02-23T20:45:52;9.25;77.96
68842;SHT35;55849;48.482;2.332;2024-02-23T20:48:57;9.21;77.36
68842;SHT35;55849;48.482;2.332;2024-02-23T20:51:59;9.25;77.76
68842;SHT35;55849;48.482;2.332;2024-02-23T20:55:01;9.21;77.13
68842;SHT35;55849;48.482;2.332;2024-02-23T20:58:03;9.20;77.31
68842;SHT35;55849;48.482;2.332;2024-02-23T21:01:05;9.20;77.54
68842;SHT35;55849;48.482;2.332;2024-02-23T21:04:08;9.21;77.63
68842;SHT35;55849;48.482;2.332;2024-02-23T21:07:10;9.15;77.74
68842;SHT35;55849;48.482;2.332;2024-02-23T21:10:12;9.21;77.73
68842;SHT35;55849;48.482;2.332;2024-02-23T21:13:15;9.18;77.33
68842;SHT35;55849;48.482;2.332;2024-02-23T21:16:17;9.20;77.95
68842;SHT35;55849;48.482;2.332;2024-02-23T21:19:20;9.15;76.81
68842;SHT35;55849;48.482;2.332;2024-02-23T21:22:21;9.13;77.44
68842;SHT35;55849;48.482;2.332;2024-02-23T21:25:23;9.14;78.05
68842;SHT35;55849;48.482;2.332;2024-02-23T21:28:26;9.15;78.20
68842;SHT35;55849;48.482;2.332;2024-02-23T21:31:28;9.11;78.64
68842;SHT35;55849;48.482;2.332;2024-02-23T21:34:31;9.13;78.35
68842;SHT35;55849;48.482;2.332;2024-02-23T21:37:32;9.15;78.51
68842;SHT35;55849;48.482;2.332;2024-02-23T21:40:34;9.14;78.26
68842;SHT35;55849;48.482;2.332;2024-02-23T21:43:36;9.13;77.58
68842;SHT35;55849;48.482;2.332;2024-02-23T21:46:37;9.10;78.37
68842;SHT35;55849;48.482;2.332;2024-02-23T21:49:40;9.11;78.48
68842;SHT35;55849;48.482;2.332;2024-02-23T21:52:44;9.08;78.59
68842;SHT35;55849;48.482;2.332;2024-02-23T21:55:45;9.08;77.98
68842;SHT35;55849;48.482;2.332;2024-02-23T21:58:47;9.07;78.14
68842;SHT35;55849;48.482;2.332;2024-02-23T22:01:49;9.06;77.96
68842;SHT35;55849;48.482;2.332;2024-02-23T22:04:52;9.07;78.28
68842;SHT35;55849;48.482;2.332;2024-02-23T22:07:55;9.03;78.40
68842;SHT35;55849;48.482;2.332;2024-02-23T22:10:57;9.08;77.93
68842;SHT35;55849;48.482;2.332;2024-02-23T22:13:59;9.04;77.90
68842;SHT35;55849;48.482;2.332;2024-02-23T22:17:00;9.00;77.40
68842;SHT35;55849;48.482;2.332;2024-02-23T22:20:04;9.00;78.39
68842;SHT35;55849;48.482;2.332;2024-02-23T22:23:06;8.97;76.84
68842;SHT35;55849;48.482;2.332;2024-02-23T22:26:09;8.96;77.71
68842;SHT35;55849;48.482;2.332;2024-02-23T22:29:11;8.94;77.35
68842;SHT35;55849;48.482;2.332;2024-02-23T22:32:12;8.94;77.74
68842;SHT35;55849;48.482;2.332;2024-02-23T22:35:15;8.89;77.52
68842;SHT35;55849;48.482;2.332;2024-02-23T22:38:17;8.86;78.08
68842;SHT35;55849;48.482;2.332;2024-02-23T22:41:18;8.82;78.01
68842;SHT35;55849;48.482;2.332;2024-02-23T22:44:20;8.80;77.71
68842;SHT35;55849;48.482;2.332;2024-02-23T22:47:23;8.76;78.06
68842;SHT35;55849;48.482;2.332;2024-02-23T22:50:26;8.73;77.53
68842;SHT35;55849;48.482;2.332;2024-02-23T22:53:27;8.71;78.29
68842;SHT35;55849;48.482;2.332;2024-02-23T22:56:29;8.66;78.28
68842;SHT35;55849;48.482;2.332;2024-02-23T22:59:31;8.62;78.18
68842;SHT35;55849;48.482;2.332;2024-02-23T23:02:32;8.62;77.63
68842;SHT35;55849;48.482;2.332;2024-02-23T23:05:35;8.62;77.69
68842;SHT35;55849;48.482;2.332;2024-02-23T23:08:37;8.59;78.36
68842;SHT35;55849;48.482;2.332;2024-02-23T23:11:38;8.59;78.04
68842;SHT35;55849;48.482;2.332;2024-02-23T23:14:40;8.59;78.44
68842;SHT35;55849;48.482;2.332;2024-02-23T23:17:42;8.59;78.83
68842;SHT35;55849;48.482;2.332;2024-02-23T23:20:44;8.55;77.31
68842;SHT35;55849;48.482;2.332;2024-02-23T23:23:46;8.58;77.98
68842;SHT35;55849;48.482;2.332;2024-02-23T23:26:48;8.56;78.17
68842;SHT35;55849;48.482;2.332;2024-02-23T23:29:49;8.58;78.53
68842;SHT35;55849;48.482;2.332;2024-02-23T23:32:51;8.56;77.95
68842;SHT35;55849;48.482;2.332;2024-02-23T23:35:54;8.58;77.98
68842;SHT35;55849;48.482;2.332;2024-02-23T23:38:55;8.55;77.92
68842;SHT35;55849;48.482;2.332;2024-02-23T23:41:57;8.55;79.17
68842;SHT35;55849;48.482;2.332;2024-02-23T23:44:58;8.56;78.40
68842;SHT35;55849;48.482;2.332;2024-02-23T23:48:01;8.54;79.12
68842;SHT35;55849;48.482;2.332;2024-02-23T23:51:04;8.62;79.09
68842;SHT35;55849;48.482;2.332;2024-02-23T23:54:06;8.62;78.94
68842;SHT35;55849;48.482;2.332;2024-02-23T23:57:07;8.65;79.34
